createdAt,value
2022-10-09T00:01:14.683Z,97690.00
2022-10-09T00:03:43.583Z,97694.69
2022-10-09T00:06:13.091Z,97698.38
2022-10-09T00:08:40.827Z,97686.38
2022-10-09T00:11:09.175Z,97690.19
2022-10-09T00:13:36.878Z,97682.75
2022-10-09T00:16:05.467Z,97678.09
2022-10-09T00:18:32.155Z,97673.56
2022-10-09T00:20:59.020Z,97681.81
2022-10-09T00:23:25.708Z,97686.03
2022-10-09T00:25:55.274Z,97689.09
2022-10-09T00:28:24.135Z,97682.25
2022-10-09T00:30:50.722Z,97679.03
2022-10-09T00:33:17.418Z,97678.66
2022-10-09T00:35:44.086Z,97677.84
2022-10-09T00:38:10.874Z,97680.09
2022-10-09T00:40:38.234Z,97684.13
2022-10-09T00:43:13.487Z,97683.69
2022-10-09T00:45:44.738Z,97680.25
2022-10-09T00:48:12.358Z,97678.00
2022-10-09T00:50:44.639Z,97684.97
2022-10-09T00:53:15.086Z,97683.56
2022-10-09T00:55:43.144Z,97681.84
2022-10-09T00:58:12.913Z,97682.28
2022-10-09T01:00:40.162Z,97679.63
2022-10-09T01:03:06.731Z,97681.56
2022-10-09T01:05:47.164Z,97680.16
2022-10-09T01:08:25.519Z,97676.19
2022-10-09T01:11:04.250Z,97671.13
2022-10-09T01:13:57.718Z,97669.66
2022-10-09T01:16:29.375Z,97660.66
2022-10-09T01:19:01.883Z,97665.44
2022-10-09T01:21:37.356Z,97665.19
2022-10-09T01:24:19.949Z,97659.84
2022-10-09T01:26:58.006Z,97657.25
2022-10-09T01:29:30.566Z,97658.13
2022-10-09T01:31:59.070Z,97654.88
2022-10-09T01:34:27.585Z,97647.72
2022-10-09T01:36:56.581Z,97652.94
2022-10-09T01:39:25.152Z,97646.75
2022-10-09T01:41:53.539Z,97638.31
2022-10-09T01:44:22.924Z,97641.50
2022-10-09T01:46:49.824Z,97638.19
2022-10-09T01:49:37.962Z,97641.28
2022-10-09T01:52:14.148Z,97635.69
2022-10-09T01:55:03.132Z,97642.94
2022-10-09T01:57:39.724Z,97639.66
2022-10-09T02:00:10.183Z,97634.38
2022-10-09T02:02:42.248Z,97631.94
2022-10-09T02:05:17.541Z,97629.25
2022-10-09T02:07:44.259Z,97623.63
2022-10-09T02:10:11.517Z,97624.13
2022-10-09T02:12:46.901Z,97620.44
2022-10-09T02:15:13.995Z,97622.66
2022-10-09T02:17:45.779Z,97627.16
2022-10-09T02:20:19.641Z,97613.69
2022-10-09T02:22:47.023Z,97613.59
2022-10-09T02:25:14.669Z,97618.00
2022-10-09T02:27:41.577Z,97610.19
2022-10-09T02:30:09.818Z,97611.00
2022-10-09T02:32:36.462Z,97610.38
2022-10-09T02:35:03.256Z,97598.22
2022-10-09T02:37:29.791Z,97598.91
2022-10-09T02:39:56.194Z,97604.56
2022-10-09T02:42:22.758Z,97592.16
2022-10-09T02:44:49.182Z,97599.16
2022-10-09T02:47:15.735Z,97587.00
2022-10-09T02:49:42.207Z,97609.56
2022-10-09T02:52:08.864Z,97598.53
2022-10-09T02:54:35.378Z,97593.94
2022-10-09T02:57:01.825Z,97594.94
2022-10-09T02:59:28.367Z,97593.31
2022-10-09T03:01:55.862Z,97595.81
2022-10-09T03:04:22.514Z,97591.09
2022-10-09T03:06:48.922Z,97591.66
2022-10-09T03:09:15.484Z,97586.53
2022-10-09T03:11:41.900Z,97592.28
2022-10-09T03:14:09.581Z,97587.66
2022-10-09T03:16:36.317Z,97574.03
2022-10-09T03:19:03.114Z,97594.06
2022-10-09T03:21:29.792Z,97593.53
2022-10-09T03:23:56.870Z,97595.56
2022-10-09T03:26:25.892Z,97588.44
2022-10-09T03:28:54.305Z,97580.13
2022-10-09T03:31:46.969Z,97580.97
2022-10-09T03:34:11.191Z,97588.84
2022-10-09T03:36:37.795Z,97591.06
2022-10-09T03:39:04.280Z,97586.38
2022-10-09T03:41:30.773Z,97591.03
2022-10-09T03:43:57.196Z,97587.78
2022-10-09T03:46:23.766Z,97591.53
2022-10-09T03:48:50.366Z,97591.81
2022-10-09T03:51:16.874Z,97589.91
2022-10-09T03:53:43.364Z,97586.84
2022-10-09T03:56:09.870Z,97595.09
2022-10-09T03:58:36.685Z,97593.69
2022-10-09T04:01:03.263Z,97592.38
2022-10-09T04:03:29.926Z,97599.06
2022-10-09T04:05:56.544Z,97599.38
2022-10-09T04:08:23.000Z,97596.94
2022-10-09T04:10:56.937Z,97598.19
2022-10-09T04:13:23.504Z,97602.13
2022-10-09T04:15:50.995Z,97603.63
2022-10-09T04:18:17.751Z,97593.91
2022-10-09T04:20:54.813Z,97600.19
2022-10-09T04:23:22.754Z,97600.09
2022-10-09T04:25:53.845Z,97591.81
2022-10-09T04:28:20.586Z,97595.84
2022-10-09T04:30:47.109Z,97603.84
2022-10-09T04:33:13.573Z,97594.88
2022-10-09T04:35:46.916Z,97593.72
2022-10-09T04:38:13.486Z,97596.16
2022-10-09T04:40:39.982Z,97590.13
2022-10-09T04:43:06.545Z,97577.63
2022-10-09T04:45:33.036Z,97592.56
2022-10-09T04:47:59.611Z,97582.16
2022-10-09T04:50:26.059Z,97585.56
2022-10-09T04:52:58.573Z,97582.97
2022-10-09T04:55:25.546Z,97587.81
2022-10-09T04:57:52.084Z,97578.41
2022-10-09T05:00:18.536Z,97588.88
2022-10-09T05:02:45.038Z,97581.53
2022-10-09T05:05:11.496Z,97581.09
2022-10-09T05:07:38.633Z,97589.44
2022-10-09T05:10:06.572Z,97579.03
2022-10-09T05:12:33.101Z,97586.03
2022-10-09T05:14:59.491Z,97597.09
2022-10-09T05:17:26.075Z,97581.75
2022-10-09T05:19:52.472Z,97597.63
2022-10-09T05:22:19.032Z,97598.78
2022-10-09T05:24:45.717Z,97594.13
2022-10-09T05:27:12.213Z,97597.19
2022-10-09T05:29:38.664Z,97598.72
2022-10-09T05:32:05.271Z,97599.97
2022-10-09T05:34:33.987Z,97594.50
2022-10-09T05:37:00.563Z,97599.69
2022-10-09T05:39:26.965Z,97602.75
2022-10-09T05:41:53.508Z,97601.50
2022-10-09T05:44:19.988Z,97599.50
2022-10-09T05:46:46.506Z,97598.19
2022-10-09T05:49:13.007Z,97597.47
2022-10-09T05:51:42.760Z,97595.31
2022-10-09T05:54:15.039Z,97598.81
2022-10-09T05:56:42.344Z,97592.25
2022-10-09T05:59:11.569Z,97589.91
2022-10-09T06:01:40.946Z,97588.38
2022-10-09T06:04:10.932Z,97587.88
2022-10-09T06:06:39.371Z,97596.38
2022-10-09T06:09:07.774Z,97594.78
2022-10-09T06:11:37.279Z,97588.94
2022-10-09T06:14:05.619Z,97596.66
2022-10-09T06:16:35.381Z,97594.22
2022-10-09T06:19:03.329Z,97592.06
2022-10-09T06:21:30.083Z,97595.91
2022-10-09T06:23:59.618Z,97595.47
2022-10-09T06:26:29.301Z,97597.09
2022-10-09T06:29:00.778Z,97606.78
2022-10-09T06:31:29.841Z,97601.28
2022-10-09T06:33:59.129Z,97615.75
2022-10-09T06:36:28.705Z,97611.44
2022-10-09T06:38:55.664Z,97613.06
2022-10-09T06:41:24.323Z,97614.41
2022-10-09T06:43:54.311Z,97607.50
2022-10-09T06:46:23.015Z,97613.06
2022-10-09T06:48:49.690Z,97613.94
2022-10-09T06:51:17.241Z,97606.03
2022-10-09T06:53:46.907Z,97605.31
2022-10-09T06:56:14.784Z,97607.41
2022-10-09T06:58:42.155Z,97603.09
2022-10-09T07:01:13.142Z,97609.81
2022-10-09T07:03:41.875Z,97600.28
2022-10-09T07:06:12.608Z,97607.31
2022-10-09T07:08:41.237Z,97609.81
2022-10-09T07:11:10.232Z,97611.44
2022-10-09T07:13:37.713Z,97610.63
2022-10-09T07:16:05.114Z,97613.59
2022-10-09T07:18:34.198Z,97613.94
2022-10-09T07:21:02.309Z,97616.00
2022-10-09T07:23:30.535Z,97624.25
2022-10-09T07:25:58.377Z,97625.50
2022-10-09T07:28:26.952Z,97617.88
2022-10-09T07:30:53.934Z,97619.16
2022-10-09T07:33:20.473Z,97618.06
2022-10-09T07:35:56.835Z,97611.44
2022-10-09T07:38:27.323Z,97619.63
2022-10-09T07:40:54.766Z,97619.09
2022-10-09T07:43:22.334Z,97619.81
2022-10-09T07:45:48.885Z,97612.06
2022-10-09T07:48:15.559Z,97612.63
2022-10-09T07:50:41.966Z,97608.72
2022-10-09T07:53:08.837Z,97608.66
2022-10-09T07:55:36.189Z,97607.06
2022-10-09T07:58:02.853Z,97605.91
2022-10-09T08:00:29.421Z,97596.50
2022-10-09T08:02:55.929Z,97612.16
2022-10-09T08:05:22.576Z,97605.91
2022-10-09T08:07:49.212Z,97612.91
2022-10-09T08:10:15.800Z,97602.94
2022-10-09T08:12:42.222Z,97609.78
2022-10-09T08:15:09.292Z,97611.44
2022-10-09T08:17:35.866Z,97600.56
2022-10-09T08:20:02.299Z,97604.00
2022-10-09T08:22:28.844Z,97597.97
2022-10-09T08:24:55.270Z,97601.53
2022-10-09T08:27:21.785Z,97605.28
2022-10-09T08:29:48.285Z,97596.44
2022-10-09T08:32:14.996Z,97592.09
2022-10-09T08:34:41.536Z,97600.69
2022-10-09T08:37:07.946Z,97594.75
2022-10-09T08:39:34.449Z,97600.91
2022-10-09T08:42:04.113Z,97601.25
2022-10-09T08:44:39.546Z,97596.94
2022-10-09T08:47:13.968Z,97597.97
2022-10-09T08:49:47.317Z,97603.44
2022-10-09T08:52:38.224Z,97597.03
2022-10-09T08:55:24.548Z,97600.25
2022-10-09T08:57:54.873Z,97589.41
2022-10-09T09:00:24.420Z,97592.44
2022-10-09T09:03:13.937Z,97603.47
2022-10-09T09:05:51.943Z,97593.19
2022-10-09T09:09:05.279Z,97590.28
2022-10-09T09:11:44.086Z,97585.81
2022-10-09T09:14:40.194Z,97582.81
2022-10-09T09:17:26.956Z,97584.19
2022-10-09T09:20:24.644Z,97578.31
2022-10-09T09:22:52.204Z,97581.81
2022-10-09T09:25:34.993Z,97577.09
2022-10-09T09:28:33.264Z,97565.88
2022-10-09T09:31:15.878Z,97570.44
2022-10-09T09:34:13.914Z,97563.63
2022-10-09T09:36:54.129Z,97548.50
2022-10-09T09:42:10.253Z,97555.88
2022-10-09T09:44:44.952Z,97550.13
2022-10-09T09:47:22.415Z,97547.50
2022-10-09T09:50:00.534Z,97538.94
2022-10-09T09:52:34.486Z,97537.81
2022-10-09T09:55:01.222Z,97536.97
2022-10-09T09:57:33.105Z,97537.38
2022-10-09T10:00:10.253Z,97530.19
2022-10-09T10:02:36.635Z,97539.38
2022-10-09T10:05:17.350Z,97531.00
2022-10-09T10:07:44.283Z,97534.00
2022-10-09T10:10:27.900Z,97523.31
2022-10-09T10:12:59.943Z,97522.09
2022-10-09T10:33:19.224Z,97501.56
2022-10-09T10:35:51.796Z,97506.91
2022-10-09T10:38:33.591Z,97493.50
2022-10-09T10:41:14.255Z,97496.63
2022-10-09T10:43:46.329Z,97496.47
2022-10-09T10:46:23.607Z,97489.09
2022-10-09T10:48:51.610Z,97490.97
2022-10-09T10:51:35.469Z,97485.31
2022-10-09T10:54:38.178Z,97474.63
2022-10-09T10:57:42.447Z,97477.69
2022-10-09T11:00:13.965Z,97473.19
2022-10-09T11:03:03.228Z,97472.81
2022-10-09T11:05:44.835Z,97471.97
2022-10-09T11:08:47.514Z,97472.41
2022-10-09T11:11:17.012Z,97466.94
2022-10-09T11:13:58.370Z,97459.38
2022-10-09T11:16:37.186Z,97462.00
2022-10-09T11:19:22.312Z,97452.78
2022-10-09T11:22:02.518Z,97456.53
2022-10-09T11:24:45.178Z,97442.28
2022-10-09T11:27:41.658Z,97445.75
2022-10-09T11:30:16.775Z,97446.38
2022-10-09T11:33:05.211Z,97440.16
2022-10-09T11:35:40.336Z,97426.91
2022-10-09T11:38:25.578Z,97416.56
2022-10-09T11:40:53.376Z,97430.03
2022-10-09T11:43:25.978Z,97439.06
2022-10-09T11:46:01.433Z,97427.25
2022-10-09T11:48:51.906Z,97420.22
2022-10-09T11:51:38.125Z,97419.38
2022-10-09T11:54:11.050Z,97402.81
2022-10-09T11:56:37.533Z,97408.00
2022-10-09T11:59:06.569Z,97408.88
2022-10-09T12:01:37.067Z,97408.06
2022-10-09T12:04:08.597Z,97401.19
2022-10-09T12:06:50.946Z,97389.47
2022-10-09T12:09:32.038Z,97392.44
2022-10-09T12:12:09.203Z,97396.81
2022-10-09T12:14:37.833Z,97390.41
2022-10-09T12:17:45.873Z,97378.94
2022-10-09T12:20:20.258Z,97376.03
2022-10-09T12:23:13.851Z,97375.72
2022-10-09T12:25:43.120Z,97366.63
2022-10-09T12:28:34.465Z,97369.28
2022-10-09T12:31:05.075Z,97364.59
2022-10-09T12:33:45.730Z,97358.25
2022-10-09T12:36:15.179Z,97354.81
2022-10-09T12:38:42.874Z,97348.31
2022-10-09T12:41:20.901Z,97345.25
2022-10-09T12:43:50.580Z,97343.09
2022-10-09T12:46:28.325Z,97347.09
2022-10-09T12:48:55.492Z,97333.16
2022-10-09T12:51:28.154Z,97330.25
2022-10-09T12:53:55.278Z,97331.94
2022-10-09T12:56:32.524Z,97332.63
2022-10-09T12:59:02.092Z,97322.88
2022-10-09T13:01:29.146Z,97318.25
2022-10-09T13:04:01.006Z,97317.78
2022-10-09T13:06:38.094Z,97314.69
2022-10-09T13:09:05.932Z,97307.63
2022-10-09T13:11:38.091Z,97309.19
2022-10-09T13:14:04.996Z,97304.72
2022-10-09T13:16:42.827Z,97309.03
2022-10-09T13:19:33.410Z,97305.75
2022-10-09T13:22:19.971Z,97300.72
2022-10-09T13:24:49.699Z,97296.97
2022-10-09T13:27:16.410Z,97286.94
2022-10-09T13:29:43.204Z,97297.00
2022-10-09T13:32:13.096Z,97292.66
2022-10-09T13:34:39.880Z,97277.50
2022-10-09T13:37:06.387Z,97284.81
2022-10-09T13:39:33.780Z,97289.78
2022-10-09T13:42:02.001Z,97271.16
2022-10-09T13:44:28.547Z,97276.63
2022-10-09T13:46:55.023Z,97278.03
2022-10-09T13:49:21.792Z,97279.09
2022-10-09T13:51:48.357Z,97280.56
2022-10-09T13:54:14.838Z,97281.00
2022-10-09T13:56:41.287Z,97271.91
2022-10-09T13:59:07.837Z,97269.13
2022-10-09T14:01:34.243Z,97279.91
2022-10-09T14:04:00.819Z,97261.53
2022-10-09T14:06:27.826Z,97261.34
2022-10-09T14:08:54.331Z,97261.97
2022-10-09T14:11:20.827Z,97261.22
2022-10-09T14:13:47.191Z,97254.16
2022-10-09T14:16:14.251Z,97255.41
2022-10-09T14:18:40.705Z,97257.97
2022-10-09T14:21:13.885Z,97244.97
2022-10-09T14:23:41.667Z,97241.47
2022-10-09T14:26:08.126Z,97249.88
2022-10-09T14:28:34.700Z,97252.50
2022-10-09T14:31:05.922Z,97242.44
2022-10-09T14:33:32.518Z,97241.72
2022-10-09T14:36:05.868Z,97239.06
2022-10-09T14:38:32.398Z,97246.84
2022-10-09T14:40:59.027Z,97239.28
2022-10-09T14:43:25.537Z,97226.06
2022-10-09T14:46:01.878Z,97226.22
2022-10-09T14:48:28.378Z,97219.53
2022-10-09T14:50:54.779Z,97218.63
2022-10-09T14:53:21.266Z,97231.28
2022-10-09T14:55:47.727Z,97232.69
2022-10-09T14:58:14.173Z,97223.25
2022-10-09T15:00:46.693Z,97233.97
2022-10-09T15:03:13.299Z,97204.72
2022-10-09T15:05:39.684Z,97210.97
2022-10-09T15:08:06.156Z,97202.69
2022-10-09T15:10:34.425Z,97210.66
2022-10-09T15:13:00.865Z,97204.66
2022-10-09T15:15:31.830Z,97202.59
2022-10-09T15:17:59.255Z,97204.75
2022-10-09T15:20:25.747Z,97200.69
2022-10-09T15:22:52.199Z,97202.44
2022-10-09T15:25:18.603Z,97197.16
2022-10-09T15:27:45.169Z,97184.00
2022-10-09T15:30:11.707Z,97182.63
2022-10-09T15:32:38.362Z,97186.44
2022-10-09T15:35:05.309Z,97175.41
2022-10-09T15:37:31.855Z,97180.06
2022-10-09T15:39:58.283Z,97173.69
2022-10-09T15:42:24.826Z,97166.66
2022-10-09T15:44:51.502Z,97171.59
2022-10-09T15:47:27.070Z,97162.63
2022-10-09T15:50:04.888Z,97164.81
2022-10-09T15:52:31.352Z,97156.25
2022-10-09T15:54:57.965Z,97154.91
2022-10-09T15:57:24.451Z,97156.44
2022-10-09T15:59:50.948Z,97150.22
2022-10-09T16:02:17.425Z,97153.06
2022-10-09T16:04:43.930Z,97156.03
2022-10-09T16:07:10.313Z,97158.59
2022-10-09T16:09:37.138Z,97149.09
2022-10-09T16:12:03.950Z,97153.06
2022-10-09T16:14:31.689Z,97160.03
2022-10-09T16:16:58.955Z,97144.09
2022-10-09T16:19:25.467Z,97153.81
2022-10-09T16:21:52.337Z,97152.88
2022-10-09T16:24:18.943Z,97142.47
2022-10-09T16:26:45.425Z,97150.63
2022-10-09T16:29:11.903Z,97145.50
2022-10-09T16:31:38.492Z,97149.88
2022-10-09T16:34:05.814Z,97152.03
2022-10-09T16:36:32.934Z,97149.28
2022-10-09T16:38:59.917Z,97139.47
2022-10-09T16:41:26.761Z,97154.25
2022-10-09T16:43:55.683Z,97152.13
2022-10-09T16:46:25.367Z,97154.31
2022-10-09T16:48:53.293Z,97152.59
2022-10-09T16:51:23.561Z,97156.06
2022-10-09T16:53:54.813Z,97156.78
2022-10-09T16:56:24.844Z,97153.69
2022-10-09T16:58:56.146Z,97152.19
2022-10-09T17:01:23.459Z,97143.91
2022-10-09T17:03:49.915Z,97144.66
2022-10-09T17:06:23.485Z,97153.81
2022-10-09T17:08:51.121Z,97162.41
2022-10-09T17:11:18.125Z,97149.84
2022-10-09T17:13:45.628Z,97146.31
2022-10-09T17:16:18.199Z,97154.91
2022-10-09T17:18:45.945Z,97152.47
2022-10-09T17:21:13.825Z,97145.31
2022-10-09T17:23:41.070Z,97154.22
2022-10-09T17:26:18.505Z,97150.13
2022-10-09T17:28:46.467Z,97144.97
2022-10-09T17:31:16.033Z,97138.16
2022-10-09T17:33:45.905Z,97141.91
2022-10-09T17:36:14.262Z,97138.81
2022-10-09T17:38:40.750Z,97137.78
2022-10-09T17:41:08.939Z,97140.78
2022-10-09T17:43:35.394Z,97149.47
2022-10-09T17:46:01.987Z,97141.22
2022-10-09T17:48:29.129Z,97145.38
2022-10-09T17:50:58.118Z,97146.03
2022-10-09T17:53:24.809Z,97138.47
2022-10-09T17:55:53.530Z,97135.28
2022-10-09T17:58:21.639Z,97139.81
2022-10-09T18:00:49.155Z,97133.88
2022-10-09T18:03:16.945Z,97130.34
2022-10-09T18:05:45.185Z,97137.88
2022-10-09T18:08:12.744Z,97118.94
2022-10-09T18:10:39.432Z,97138.78
2022-10-09T18:13:07.571Z,97125.75
2022-10-09T18:15:37.865Z,97123.94
2022-10-09T18:18:05.007Z,97127.47
2022-10-09T18:20:34.599Z,97118.56
2022-10-09T18:23:01.089Z,97125.06
2022-10-09T18:25:27.518Z,97114.69
2022-10-09T18:27:54.405Z,97108.50
2022-10-09T18:30:20.893Z,97103.13
2022-10-09T18:32:48.598Z,97112.41
2022-10-09T18:35:15.414Z,97099.28
2022-10-09T18:37:41.911Z,97109.88
2022-10-09T18:40:08.849Z,97101.09
2022-10-09T18:42:35.719Z,97103.41
2022-10-09T18:45:03.300Z,97095.03
2022-10-09T18:47:34.962Z,97082.38
2022-10-09T18:50:06.609Z,97105.44
2022-10-09T18:52:34.369Z,97099.38
2022-10-09T18:55:02.473Z,97098.94
2022-10-09T18:57:29.390Z,97093.09
2022-10-09T18:59:57.438Z,97086.47
2022-10-09T19:02:26.539Z,97084.97
2022-10-09T19:04:54.568Z,97078.81
2022-10-09T19:07:21.262Z,97079.16
2022-10-09T19:09:55.015Z,97076.75
2022-10-09T19:12:24.575Z,97071.59
2022-10-09T19:14:51.661Z,97073.53
2022-10-09T19:17:18.530Z,97068.28
2022-10-09T19:19:45.177Z,97068.03
2022-10-09T19:22:15.423Z,97079.00
2022-10-09T19:24:44.259Z,97059.13
2022-10-09T19:27:11.125Z,97060.63
2022-10-09T19:29:37.753Z,97061.19
2022-10-09T19:32:04.151Z,97061.09
2022-10-09T19:34:30.852Z,97058.91
2022-10-09T19:36:57.534Z,97059.81
2022-10-09T19:39:24.043Z,97053.09
2022-10-09T19:41:51.134Z,97044.28
2022-10-09T19:44:17.986Z,97057.88
2022-10-09T19:46:45.238Z,97057.44
2022-10-09T19:49:12.117Z,97053.44
2022-10-09T19:51:38.633Z,97055.28
2022-10-09T19:54:07.684Z,97063.50
2022-10-09T19:56:35.130Z,97065.44
2022-10-09T19:59:06.379Z,97059.28
2022-10-09T20:01:35.306Z,97051.75
2022-10-09T20:04:05.293Z,97057.09
2022-10-09T20:06:31.852Z,97055.63
2022-10-09T20:08:58.362Z,97063.84
2022-10-09T20:11:26.206Z,97053.13
2022-10-09T20:13:56.060Z,97045.81
2022-10-09T20:16:24.516Z,97045.13
2022-10-09T20:18:51.270Z,97050.38
2022-10-09T20:21:18.049Z,97053.88
2022-10-09T20:23:44.610Z,97053.09
2022-10-09T20:26:13.003Z,97054.25
2022-10-09T20:28:39.934Z,97052.75
2022-10-09T20:31:07.973Z,97057.56
2022-10-09T20:33:35.753Z,97052.38
2022-10-09T20:36:03.553Z,97041.53
2022-10-09T20:38:30.010Z,97051.59
2022-10-09T20:41:07.916Z,97053.84
2022-10-09T20:43:35.574Z,97023.38
2022-10-09T20:46:13.620Z,97036.84
2022-10-09T20:48:43.973Z,97052.72
2022-10-09T20:51:10.610Z,97038.69
2022-10-09T20:53:36.984Z,97041.28
2022-10-09T20:56:06.760Z,97036.50
2022-10-09T20:58:35.126Z,97042.75
2022-10-09T21:01:07.188Z,97036.38
2022-10-09T21:03:35.605Z,97040.56
2022-10-09T21:06:07.315Z,97041.75
2022-10-09T21:08:34.726Z,97032.22
2022-10-09T21:11:07.703Z,97028.22
2022-10-09T21:13:35.239Z,97023.31
2022-10-09T21:16:05.126Z,97032.09
2022-10-09T21:18:31.643Z,97001.47
2022-10-09T21:21:04.222Z,97041.50
2022-10-09T21:23:30.794Z,97040.13
2022-10-09T21:25:57.140Z,97039.78
2022-10-09T21:28:24.498Z,97038.63
2022-10-09T21:30:51.019Z,97028.09
2022-10-09T21:33:18.081Z,97033.09
2022-10-09T21:35:50.205Z,97020.31
2022-10-09T21:38:19.673Z,97027.22
2022-10-09T21:40:47.164Z,97033.19
2022-10-09T21:43:13.789Z,97020.16
2022-10-09T21:45:40.455Z,97036.47
2022-10-09T21:48:07.221Z,97025.03
2022-10-09T21:50:34.538Z,97029.34
2022-10-09T21:53:01.027Z,97007.41
2022-10-09T21:55:27.486Z,97027.72
2022-10-09T21:57:54.618Z,97024.91
2022-10-09T22:00:21.446Z,97011.50
2022-10-09T22:18:06.210Z,97019.41
2022-10-09T22:20:32.645Z,97020.06
2022-10-09T22:22:59.228Z,97012.34
2022-10-09T22:25:25.653Z,97019.06
2022-10-09T22:27:52.183Z,97016.81
2022-10-09T22:30:18.574Z,97017.09
2022-10-09T22:32:45.073Z,97010.84
2022-10-09T22:35:11.577Z,97005.03
2022-10-09T22:37:38.115Z,97004.38
2022-10-09T22:40:04.706Z,97010.50
2022-10-09T22:42:31.243Z,97000.09
2022-10-09T22:44:57.616Z,97008.44
2022-10-09T22:47:24.042Z,97005.47
2022-10-09T22:49:50.571Z,97001.84
2022-10-09T22:52:17.038Z,96996.59
2022-10-09T22:54:43.673Z,96998.66
2022-10-09T22:57:10.042Z,97010.56
2022-10-09T22:59:36.471Z,96996.03
2022-10-09T23:02:03.076Z,96996.22
2022-10-09T23:04:29.528Z,97006.28
2022-10-09T23:06:58.098Z,97005.56
2022-10-09T23:09:27.623Z,96997.50
2022-10-09T23:11:54.704Z,97004.75
2022-10-09T23:14:21.372Z,96997.50
2022-10-09T23:16:48.154Z,97002.63
2022-10-09T23:19:15.000Z,96992.56
2022-10-09T23:21:43.689Z,97000.81
2022-10-09T23:24:12.016Z,96980.03
2022-10-09T23:26:38.588Z,96986.94
2022-10-09T23:29:06.765Z,96998.91
2022-10-09T23:31:33.755Z,96997.78
2022-10-09T23:34:00.478Z,97007.44
2022-10-09T23:36:28.881Z,96995.16
2022-10-09T23:38:56.783Z,96993.41
2022-10-09T23:41:25.252Z,97000.22
2022-10-09T23:43:52.135Z,96996.03
2022-10-09T23:46:21.166Z,96997.09
2022-10-09T23:48:48.799Z,96998.94
2022-10-09T23:51:16.121Z,96989.59
2022-10-09T23:53:43.516Z,96999.88
2022-10-09T23:56:25.297Z,97008.31
2022-10-09T23:58:53.215Z,96989.84
